Time;durP1;ratioP1;P1;durP2;ratioP2;P2;SDS_P1;SDS_P2;PMS_P1;PMS_P2;Temp;Humidity;BMP_temperature;BMP_pressure;BME280_temperature;BME280_humidity;BME280_pressure;Samples;Min_cycle;Max_cycle;Signal;HPM_P1;HPM_P2
2023/04/13 00:00:34;;;;;;;8.97;5.80;;;10.20;99.90;;;;;;5029367;28;20193;-74
2023/04/13 00:03:00;;;;;;;6.67;5.33;;;10.20;99.90;;;;;;5027987;28;20204;-74
2023/04/13 00:05:27;;;;;;;9.30;6.53;;;10.20;99.90;;;;;;5026859;28;20270;-72
2023/04/13 00:07:53;;;;;;;7.67;5.47;;;10.20;99.90;;;;;;5029894;28;20702;-75
2023/04/13 00:10:19;;;;;;;8.17;5.83;;;10.20;99.90;;;;;;5026211;28;20184;-74
2023/04/13 00:12:48;;;;;;;9.17;6.17;;;10.10;99.90;;;;;;5028707;28;20258;-74
2023/04/13 00:15:16;;;;;;;7.03;5.53;;;10.20;99.90;;;;;;5025890;28;20201;-75
2023/04/13 00:17:42;;;;;;;6.37;5.33;;;10.20;99.90;;;;;;5029552;28;20208;-73
2023/04/13 00:20:12;;;;;;;6.57;5.40;;;10.10;99.90;;;;;;5027779;28;20617;-75
2023/04/13 00:22:39;;;;;;;8.07;5.80;;;10.00;99.90;;;;;;5022738;28;20587;-75
2023/04/13 00:25:05;;;;;;;6.20;5.43;;;10.00;99.90;;;;;;5023831;28;20203;-75
2023/04/13 00:27:31;;;;;;;6.93;6.23;;;10.00;99.90;;;;;;5020889;28;20272;-76
2023/04/13 00:29:57;;;;;;;8.00;5.70;;;10.00;99.90;;;;;;5022609;28;20335;-74
2023/04/13 00:32:23;;;;;;;7.37;6.13;;;9.90;99.90;;;;;;5025971;28;20270;-74
2023/04/13 00:34:49;;;;;;;7.93;6.33;;;9.90;99.90;;;;;;5030448;28;20208;-75
2023/04/13 00:37:14;;;;;;;10.27;6.93;;;9.90;99.90;;;;;;5029315;28;20223;-74
2023/04/13 00:39:42;;;;;;;9.10;7.03;;;9.90;99.90;;;;;;5029684;28;20570;-75
2023/04/13 00:42:08;;;;;;;8.23;6.13;;;9.90;99.90;;;;;;5028724;28;20208;-75
2023/04/13 00:44:34;;;;;;;11.10;7.50;;;9.80;99.90;;;;;;5027997;28;20330;-74
2023/04/13 00:47:02;;;;;;;8.27;7.20;;;9.80;99.90;;;;;;5026034;28;20292;-75
2023/04/13 00:49:29;;;;;;;10.17;7.17;;;9.80;99.90;;;;;;5019195;28;20212;-73
2023/04/13 00:51:54;;;;;;;8.53;6.57;;;9.80;99.90;;;;;;5029190;28;20184;-75
2023/04/13 00:54:21;;;;;;;8.80;7.33;;;9.80;99.90;;;;;;5027663;28;20213;-74
2023/04/13 00:56:47;;;;;;;9.53;6.93;;;9.80;99.90;;;;;;5028435;28;20224;-75
2023/04/13 00:59:14;;;;;;;10.67;7.70;;;9.80;99.90;;;;;;5024590;28;20258;-76
2023/04/13 01:01:49;;;;;;;10.07;6.97;;;9.70;99.90;;;;;;5024527;28;20212;-76
2023/04/13 01:04:18;;;;;;;9.23;7.70;;;9.70;99.90;;;;;;5024302;28;20179;-75
2023/04/13 01:06:54;;;;;;;10.00;7.27;;;9.60;99.90;;;;;;5023755;28;20189;-74
2023/04/13 01:09:58;;;;;;;10.43;7.63;;;9.60;99.90;;;;;;5024038;28;20207;-75
2023/04/13 01:12:58;;;;;;;13.20;7.33;;;9.60;99.90;;;;;;5019225;28;20196;-73
2023/04/13 01:15:26;;;;;;;11.83;7.87;;;9.60;99.90;;;;;;5003829;28;20208;-75
2023/04/13 01:18:03;;;;;;;10.27;8.00;;;9.60;99.90;;;;;;5026339;28;20228;-74
2023/04/13 01:20:31;;;;;;;10.93;8.37;;;9.50;99.90;;;;;;5026981;28;20203;-75
2023/04/13 01:22:59;;;;;;;14.40;7.37;;;9.60;99.90;;;;;;5028592;28;20199;-74
2023/04/13 01:25:24;;;;;;;9.73;7.50;;;9.50;99.90;;;;;;5026958;28;20215;-75
2023/04/13 01:28:12;;;;;;;8.57;7.03;;;9.50;99.90;;;;;;5027115;28;20199;-75
2023/04/13 01:30:38;;;;;;;8.87;6.77;;;9.40;99.90;;;;;;5025279;28;20236;-75
2023/04/13 01:33:05;;;;;;;10.63;7.17;;;9.40;99.90;;;;;;5026263;28;20200;-74
2023/04/13 01:35:31;;;;;;;10.10;7.27;;;9.40;99.90;;;;;;5025494;28;20209;-74
2023/04/13 01:37:57;;;;;;;10.63;8.17;;;9.40;99.90;;;;;;5027461;28;20642;-74
2023/04/13 01:40:25;;;;;;;8.20;7.00;;;9.30;99.90;;;;;;5016855;28;20733;-75
2023/04/13 01:42:51;;;;;;;8.73;6.67;;;9.40;99.90;;;;;;5029047;28;20179;-75
2023/04/13 01:45:19;;;;;;;8.90;7.33;;;9.40;99.90;;;;;;5019525;28;20212;-75
2023/04/13 01:48:01;;;;;;;9.23;7.60;;;9.40;99.90;;;;;;5021716;28;20216;-75
2023/04/13 01:50:38;;;;;;;9.70;7.63;;;9.30;99.90;;;;;;5022635;28;20204;-74
2023/04/13 01:53:10;;;;;;;10.37;7.70;;;9.30;99.90;;;;;;5023744;28;20283;-75
2023/04/13 01:55:38;;;;;;;10.53;8.27;;;9.20;99.90;;;;;;5026590;28;20220;-75
2023/04/13 01:58:05;;;;;;;10.00;7.80;;;9.30;99.90;;;;;;5028752;28;20640;-75
2023/04/13 02:00:35;;;;;;;11.83;8.33;;;9.20;99.90;;;;;;5026267;28;20212;-74
2023/04/13 02:03:05;;;;;;;12.60;8.43;;;9.10;99.90;;;;;;5028277;28;20212;-74
2023/04/13 02:05:41;;;;;;;10.23;8.63;;;9.10;99.90;;;;;;5026173;28;20212;-74
2023/04/13 02:08:08;;;;;;;11.17;7.93;;;9.00;99.90;;;;;;5026757;28;20729;-75
2023/04/13 02:10:36;;;;;;;11.60;8.73;;;9.00;99.90;;;;;;5024512;28;20779;-75
2023/04/13 02:13:06;;;;;;;12.93;7.53;;;8.90;99.90;;;;;;5028455;28;20177;-75
2023/04/13 02:15:36;;;;;;;12.13;8.20;;;8.90;99.90;;;;;;5023408;28;20637;-75
2023/04/13 02:18:03;;;;;;;10.83;8.10;;;8.90;99.90;;;;;;5024594;28;20216;-74
2023/04/13 02:20:32;;;;;;;9.40;6.67;;;8.90;99.90;;;;;;5018942;28;20212;-74
2023/04/13 02:22:59;;;;;;;12.23;7.97;;;8.90;99.90;;;;;;5028179;28;20691;-75
2023/04/13 02:25:26;;;;;;;8.80;6.93;;;8.90;99.90;;;;;;5019018;28;20217;-72
2023/04/13 02:27:52;;;;;;;10.63;7.10;;;8.80;99.90;;;;;;5024267;28;20200;-75
2023/04/13 02:30:18;;;;;;;11.33;6.40;;;8.70;99.90;;;;;;5023867;28;20201;-73
2023/04/13 02:32:48;;;;;;;11.97;6.20;;;8.70;99.90;;;;;;5020508;28;20215;-75
2023/04/13 02:35:14;;;;;;;9.97;5.90;;;8.60;99.90;;;;;;5031522;28;20270;-74
2023/04/13 02:37:40;;;;;;;10.17;6.07;;;8.60;99.90;;;;;;5031786;28;20580;-74
2023/04/13 02:40:09;;;;;;;11.33;6.37;;;8.60;99.90;;;;;;5032015;28;20173;-75
2023/04/13 02:42:35;;;;;;;9.93;6.30;;;8.60;99.90;;;;;;5031573;28;20175;-74
2023/04/13 02:45:01;;;;;;;8.77;5.73;;;8.50;99.90;;;;;;5030677;28;20624;-75
2023/04/13 02:47:27;;;;;;;8.83;6.00;;;8.50;99.90;;;;;;5029012;28;20204;-75
2023/04/13 02:49:53;;;;;;;11.70;5.60;;;8.60;99.90;;;;;;5023073;28;20208;-75
2023/04/13 02:52:20;;;;;;;9.73;6.57;;;8.50;99.90;;;;;;5030528;28;20177;-74
2023/04/13 02:54:46;;;;;;;9.13;6.07;;;8.50;99.90;;;;;;5031350;28;20216;-73
2023/04/13 02:57:14;;;;;;;8.07;6.20;;;8.60;99.90;;;;;;5032125;28;20236;-75
2023/04/13 02:59:40;;;;;;;10.67;6.63;;;8.60;99.90;;;;;;5040907;28;20224;-75
2023/04/13 03:02:06;;;;;;;11.00;5.63;;;8.60;99.90;;;;;;5027056;28;20208;-74
2023/04/13 03:04:31;;;;;;;10.63;6.30;;;8.50;99.90;;;;;;5026750;28;20583;-73
2023/04/13 03:06:57;;;;;;;9.07;5.73;;;8.50;99.90;;;;;;5026538;28;20192;-75
2023/04/13 03:09:24;;;;;;;9.40;5.57;;;8.40;99.90;;;;;;5027674;28;20699;-75
2023/04/13 03:11:50;;;;;;;9.43;6.03;;;8.40;99.90;;;;;;5030809;28;20201;-74
2023/04/13 03:14:21;;;;;;;7.97;5.53;;;8.40;99.90;;;;;;5026275;28;20201;-74
2023/04/13 03:16:47;;;;;;;9.47;5.30;;;8.40;99.90;;;;;;5027466;28;20232;-75
2023/04/13 03:19:15;;;;;;;6.43;4.80;;;8.30;99.90;;;;;;5031473;28;20176;-74
2023/04/13 03:21:41;;;;;;;14.07;5.10;;;8.40;99.90;;;;;;5030411;28;20176;-74
2023/04/13 03:24:07;;;;;;;7.57;5.10;;;8.40;99.90;;;;;;5030509;28;20215;-75
2023/04/13 03:26:33;;;;;;;7.67;5.30;;;8.30;99.90;;;;;;5023244;28;20211;-74
2023/04/13 03:28:58;;;;;;;6.73;4.33;;;8.30;99.90;;;;;;5029308;28;20205;-75
2023/04/13 03:31:24;;;;;;;7.73;4.47;;;8.20;99.90;;;;;;5021528;28;20208;-75
2023/04/13 03:33:50;;;;;;;7.97;4.67;;;8.20;99.90;;;;;;5028084;28;20202;-74
2023/04/13 03:36:16;;;;;;;7.50;4.10;;;8.20;99.90;;;;;;5026988;28;20224;-73
2023/04/13 03:38:41;;;;;;;6.57;4.17;;;8.30;99.90;;;;;;5028663;28;20682;-72
2023/04/13 03:41:07;;;;;;;10.67;5.07;;;8.30;99.90;;;;;;5026709;28;20208;-75
2023/04/13 03:43:33;;;;;;;7.80;4.70;;;8.30;99.90;;;;;;5025902;28;20681;-74
2023/04/13 03:45:58;;;;;;;6.70;4.90;;;8.40;99.90;;;;;;5024917;28;20246;-73
2023/04/13 03:48:24;;;;;;;7.20;4.60;;;8.50;99.90;;;;;;5022483;28;20586;-75
2023/04/13 03:50:49;;;;;;;6.83;4.50;;;8.50;99.90;;;;;;5029610;28;20204;-75
2023/04/13 03:53:15;;;;;;;10.53;4.57;;;8.50;99.90;;;;;;5022178;28;20237;-74
2023/04/13 03:55:41;;;;;;;8.30;4.47;;;8.40;99.90;;;;;;5021577;28;20700;-74
2023/04/13 03:58:07;;;;;;;7.27;4.67;;;8.40;99.90;;;;;;5030507;28;20203;-75
2023/04/13 04:00:32;;;;;;;6.23;4.20;;;8.50;99.90;;;;;;5030328;28;20203;-75
2023/04/13 04:02:58;;;;;;;8.87;4.47;;;8.40;99.90;;;;;;5028673;28;20207;-74
2023/04/13 04:05:23;;;;;;;8.37;4.40;;;8.40;99.90;;;;;;5029187;28;20216;-75
2023/04/13 04:07:49;;;;;;;8.10;4.23;;;8.40;99.90;;;;;;5027988;28;20208;-75
2023/04/13 04:10:16;;;;;;;10.07;4.90;;;8.40;99.90;;;;;;5031067;28;20184;-74
2023/04/13 04:12:42;;;;;;;8.17;4.73;;;8.40;99.90;;;;;;5026559;28;20588;-73
2023/04/13 04:15:08;;;;;;;7.50;4.47;;;8.40;99.90;;;;;;5027505;28;20208;-75
2023/04/13 04:17:34;;;;;;;11.33;5.03;;;8.50;99.90;;;;;;5016998;28;20302;-74
2023/04/13 04:19:59;;;;;;;7.53;4.63;;;8.40;99.90;;;;;;5026150;28;20254;-75
2023/04/13 04:22:28;;;;;;;9.30;4.37;;;8.40;99.90;;;;;;5026030;28;20292;-75
2023/04/13 04:25:00;;;;;;;9.20;4.73;;;8.40;99.90;;;;;;5021765;28;20200;-75
2023/04/13 04:27:26;;;;;;;6.90;4.33;;;8.40;99.90;;;;;;5031151;28;20215;-74
2023/04/13 04:29:57;;;;;;;8.47;4.73;;;8.40;99.90;;;;;;5029161;28;20196;-74
2023/04/13 04:32:23;;;;;;;7.93;4.47;;;8.40;99.90;;;;;;5019186;28;20226;-74
2023/04/13 04:34:51;;;;;;;6.43;4.40;;;8.40;99.90;;;;;;5022240;28;20291;-74
2023/04/13 04:37:20;;;;;;;10.73;4.60;;;8.30;99.90;;;;;;5026356;28;20246;-74
2023/04/13 04:39:47;;;;;;;7.97;4.57;;;8.20;99.90;;;;;;5030646;28;20186;-74
2023/04/13 04:42:13;;;;;;;7.03;4.10;;;8.10;99.90;;;;;;5029350;28;20200;-74
2023/04/13 04:44:39;;;;;;;7.63;4.03;;;8.20;99.90;;;;;;5028380;28;20216;-73
2023/04/13 04:47:04;;;;;;;8.67;4.17;;;8.20;99.90;;;;;;5027137;28;20269;-75
2023/04/13 04:49:30;;;;;;;6.80;4.40;;;8.20;99.90;;;;;;5027000;28;20208;-73
2023/04/13 04:51:56;;;;;;;7.20;4.77;;;8.20;99.90;;;;;;5029574;28;20180;-74
2023/04/13 04:54:23;;;;;;;8.23;4.07;;;8.20;99.90;;;;;;5029048;28;20211;-73
2023/04/13 04:56:50;;;;;;;9.37;5.43;;;8.20;99.90;;;;;;5028398;28;20227;-75
2023/04/13 04:59:18;;;;;;;5.43;3.83;;;8.10;99.90;;;;;;5028683;28;20216;-74
2023/04/13 05:01:44;;;;;;;9.60;5.80;;;8.10;99.90;;;;;;5022935;28;20415;-73
2023/04/13 05:04:09;;;;;;;9.23;4.40;;;8.10;99.90;;;;;;5025139;28;20187;-75
2023/04/13 05:06:35;;;;;;;7.67;4.87;;;8.10;99.90;;;;;;5024826;28;20201;-75
2023/04/13 05:09:05;;;;;;;7.27;4.60;;;8.20;99.90;;;;;;5024462;28;20200;-75
2023/04/13 05:11:31;;;;;;;10.10;6.00;;;8.20;99.90;;;;;;5026682;28;20212;-73
2023/04/13 05:13:57;;;;;;;7.90;5.33;;;8.20;99.90;;;;;;5026664;28;20287;-75
2023/04/13 05:16:23;;;;;;;9.17;5.13;;;8.20;99.90;;;;;;5024642;28;20223;-75
2023/04/13 05:18:50;;;;;;;6.70;5.33;;;8.10;99.90;;;;;;5022213;28;20184;-74
2023/04/13 05:21:16;;;;;;;9.03;5.70;;;8.20;99.90;;;;;;5028534;28;20726;-75
2023/04/13 05:23:42;;;;;;;11.63;6.50;;;8.20;99.90;;;;;;5028918;28;20580;-75
2023/04/13 05:26:10;;;;;;;7.33;5.83;;;8.20;99.90;;;;;;5028425;28;20220;-75
2023/04/13 05:28:36;;;;;;;14.60;7.03;;;8.20;99.90;;;;;;5022539;28;20243;-74
2023/04/13 05:31:07;;;;;;;11.37;7.17;;;8.30;99.90;;;;;;5028174;28;20199;-75
2023/04/13 05:33:33;;;;;;;11.70;6.63;;;8.30;99.90;;;;;;5025889;28;20746;-73
2023/04/13 05:35:59;;;;;;;13.27;7.27;;;8.30;99.90;;;;;;5028202;28;20295;-75
2023/04/13 05:38:25;;;;;;;10.37;6.80;;;8.50;99.90;;;;;;5025101;28;20208;-73
2023/04/13 05:40:52;;;;;;;10.10;6.30;;;8.50;99.90;;;;;;5025381;28;20630;-74
2023/04/13 05:43:19;;;;;;;11.30;6.67;;;8.40;99.90;;;;;;5024194;28;20211;-73
2023/04/13 05:45:44;;;;;;;10.30;6.63;;;8.50;99.90;;;;;;5028706;28;20196;-73
2023/04/13 05:48:10;;;;;;;10.13;5.93;;;8.50;99.90;;;;;;5022626;28;20212;-74
2023/04/13 05:50:36;;;;;;;11.13;6.60;;;8.50;99.90;;;;;;5026691;28;20208;-74
2023/04/13 05:53:04;;;;;;;11.17;6.23;;;8.50;99.90;;;;;;5022001;28;20225;-74
2023/04/13 05:55:30;;;;;;;9.63;6.40;;;8.50;99.90;;;;;;5022484;28;20279;-72
2023/04/13 05:57:55;;;;;;;9.60;5.93;;;8.50;99.90;;;;;;5028749;28;20303;-74
2023/04/13 06:00:21;;;;;;;11.17;6.30;;;8.50;99.90;;;;;;5021875;28;20312;-74
2023/04/13 06:02:47;;;;;;;7.93;5.60;;;8.50;99.90;;;;;;5029207;28;20228;-74
2023/04/13 06:05:14;;;;;;;11.13;6.90;;;8.50;99.90;;;;;;5029497;28;20291;-74
2023/04/13 06:07:43;;;;;;;9.00;5.57;;;8.60;99.90;;;;;;5029710;28;20274;-74
2023/04/13 06:10:10;;;;;;;8.63;5.07;;;8.70;99.90;;;;;;5031727;28;20211;-74
2023/04/13 06:12:36;;;;;;;10.10;5.63;;;8.80;99.90;;;;;;5031152;28;20178;-74
2023/04/13 06:15:02;;;;;;;7.77;4.90;;;8.80;99.90;;;;;;5032229;28;20204;-74
2023/04/13 06:17:28;;;;;;;7.63;4.97;;;8.80;99.90;;;;;;5028186;28;20583;-72
2023/04/13 06:19:54;;;;;;;9.30;4.60;;;8.90;99.90;;;;;;5028957;28;20208;-74
2023/04/13 06:22:21;;;;;;;6.30;4.50;;;8.90;99.90;;;;;;5027635;28;20267;-74
2023/04/13 06:24:47;;;;;;;6.27;4.47;;;8.90;99.90;;;;;;5027223;28;20208;-75
2023/04/13 06:27:14;;;;;;;8.00;4.60;;;8.90;99.90;;;;;;5027245;28;20220;-74
2023/04/13 06:29:40;;;;;;;6.40;4.30;;;9.00;99.90;;;;;;5025010;28;20202;-73
2023/04/13 06:32:06;;;;;;;6.20;4.03;;;8.90;99.90;;;;;;5026883;28;20675;-73
2023/04/13 06:34:33;;;;;;;5.90;4.17;;;9.00;99.90;;;;;;5026221;28;20211;-73
2023/04/13 06:36:59;;;;;;;6.87;4.60;;;8.90;99.90;;;;;;5029447;28;20199;-74
2023/04/13 06:39:24;;;;;;;6.50;3.77;;;8.90;99.90;;;;;;5021756;28;20205;-75
2023/04/13 06:41:50;;;;;;;6.00;4.30;;;8.90;99.90;;;;;;5030760;28;20223;-75
2023/04/13 06:44:17;;;;;;;4.57;3.40;;;9.00;99.90;;;;;;5032345;28;20255;-75
2023/04/13 06:46:43;;;;;;;4.37;3.60;;;9.10;99.90;;;;;;5030949;28;20809;-73
2023/04/13 06:49:08;;;;;;;6.67;4.00;;;9.00;99.90;;;;;;5032255;28;20255;-74
2023/04/13 06:51:34;;;;;;;6.17;3.60;;;9.00;99.90;;;;;;5029281;28;20191;-74
2023/04/13 06:54:00;;;;;;;7.30;3.20;;;9.10;99.90;;;;;;5030432;28;20254;-74
2023/04/13 06:56:26;;;;;;;7.93;3.80;;;9.10;99.90;;;;;;5027408;28;20204;-74
2023/04/13 06:58:51;;;;;;;5.77;3.53;;;9.10;99.90;;;;;;5031658;28;20586;-73
2023/04/13 07:01:17;;;;;;;5.20;3.30;;;9.20;99.90;;;;;;5032795;28;20255;-75
2023/04/13 07:03:43;;;;;;;7.80;3.80;;;9.10;99.90;;;;;;5030024;28;20498;-77
2023/04/13 07:06:09;;;;;;;6.23;3.70;;;9.20;99.90;;;;;;5029811;28;20214;-75
2023/04/13 07:08:35;;;;;;;7.77;3.97;;;9.10;99.90;;;;;;5024216;28;20296;-74
2023/04/13 07:11:01;;;;;;;5.23;3.27;;;9.10;99.90;;;;;;5029541;28;20609;-74
2023/04/13 07:13:27;;;;;;;7.00;3.50;;;9.30;99.90;;;;;;5038601;28;20630;-74
2023/04/13 07:15:53;;;;;;;8.47;3.30;;;9.20;99.90;;;;;;5025411;28;20185;-74
2023/04/13 07:18:18;;;;;;;6.27;2.83;;;9.30;99.90;;;;;;5022541;28;20295;-75
2023/04/13 07:20:46;;;;;;;5.67;2.93;;;9.40;99.90;;;;;;5022630;28;20304;-75
2023/04/13 07:23:11;;;;;;;3.87;2.63;;;9.50;99.90;;;;;;5027912;28;20200;-75
2023/04/13 07:25:37;;;;;;;5.23;2.77;;;9.40;99.90;;;;;;5030854;28;20220;-74
2023/04/13 07:28:03;;;;;;;6.57;3.77;;;9.50;99.90;;;;;;5030710;28;20667;-75
2023/04/13 07:30:29;;;;;;;4.97;2.67;;;9.40;99.90;;;;;;5030060;28;20173;-75
2023/04/13 07:32:54;;;;;;;5.27;2.70;;;9.30;99.90;;;;;;5029529;28;20208;-74
2023/04/13 07:35:20;;;;;;;5.97;2.90;;;9.40;99.90;;;;;;5028090;28;20215;-75
2023/04/13 07:37:48;;;;;;;3.80;2.60;;;9.40;99.90;;;;;;5027076;28;20264;-74
2023/04/13 07:40:17;;;;;;;6.30;3.07;;;9.40;99.90;;;;;;5021618;28;20185;-75
2023/04/13 07:42:44;;;;;;;4.50;2.93;;;9.50;99.90;;;;;;5026203;28;20169;-73
2023/04/13 07:45:10;;;;;;;6.97;3.20;;;9.70;99.90;;;;;;5027832;28;20212;-74
2023/04/13 07:47:36;;;;;;;5.33;2.73;;;9.70;99.90;;;;;;5023634;28;20205;-75
2023/04/13 07:50:04;;;;;;;3.07;2.63;;;9.90;99.90;;;;;;5026179;28;20797;-74
2023/04/13 07:52:30;;;;;;;3.40;2.53;;;10.20;99.90;;;;;;5022814;28;20220;-75
2023/04/13 07:54:55;;;;;;;4.37;2.67;;;10.40;99.90;;;;;;5031006;28;20191;-75
2023/04/13 07:57:21;;;;;;;4.43;2.77;;;10.50;99.90;;;;;;5025423;28;20307;-75
2023/04/13 07:59:47;;;;;;;5.30;2.70;;;10.50;99.90;;;;;;5026698;28;20243;-75
2023/04/13 08:02:13;;;;;;;4.70;2.57;;;10.40;99.90;;;;;;5020877;28;20212;-75
2023/04/13 08:04:39;;;;;;;6.70;3.00;;;10.50;99.90;;;;;;5028711;28;20763;-74
2023/04/13 08:07:04;;;;;;;6.60;2.80;;;10.70;99.90;;;;;;5030924;28;20271;-75
2023/04/13 08:09:38;;;;;;;4.07;2.57;;;11.00;99.90;;;;;;5030749;28;20176;-75
2023/04/13 08:12:03;;;;;;;4.13;2.70;;;11.20;99.90;;;;;;5027333;28;20206;-75
2023/04/13 08:14:29;;;;;;;5.57;2.70;;;11.10;99.90;;;;;;5026871;28;20295;-75
2023/04/13 08:16:55;;;;;;;4.97;2.67;;;11.40;99.90;;;;;;5028008;28;20205;-75
2023/04/13 08:19:21;;;;;;;3.17;1.90;;;11.70;99.90;;;;;;5024652;28;20183;-75
2023/04/13 08:21:47;;;;;;;3.13;2.20;;;11.90;99.90;;;;;;5027742;28;20181;-75
2023/04/13 08:24:12;;;;;;;4.43;1.92;;;12.30;99.90;;;;;;5027510;28;20591;-76
2023/04/13 08:26:39;;;;;;;3.53;1.92;;;12.80;99.90;;;;;;5020733;28;20240;-76
2023/04/13 08:29:04;;;;;;;2.13;1.73;;;12.60;99.90;;;;;;5026402;28;20208;-76
2023/04/13 08:31:31;;;;;;;4.13;1.80;;;12.60;99.90;;;;;;5026074;28;20226;-77
2023/04/13 08:33:57;;;;;;;3.28;1.70;;;12.50;99.90;;;;;;5023414;28;20207;-74
2023/04/13 08:36:22;;;;;;;3.72;2.25;;;12.50;99.90;;;;;;5025179;28;20237;-74
2023/04/13 08:38:48;;;;;;;2.78;1.42;;;12.40;99.90;;;;;;5042356;28;20215;-75
2023/04/13 08:41:16;;;;;;;2.72;1.50;;;12.40;99.90;;;;;;5021829;28;20196;-74
2023/04/13 08:43:42;;;;;;;2.72;1.58;;;12.40;99.90;;;;;;5020563;28;20204;-73
2023/04/13 08:46:08;;;;;;;2.72;1.23;;;12.50;99.90;;;;;;5030217;28;20321;-75
2023/04/13 08:48:38;;;;;;;1.77;1.60;;;12.50;99.90;;;;;;5029481;28;20250;-74
2023/04/13 08:51:04;;;;;;;3.58;1.73;;;12.70;99.90;;;;;;5029362;28;20702;-75
2023/04/13 08:53:30;;;;;;;3.30;1.23;;;12.70;99.90;;;;;;5028203;28;20279;-75
2023/04/13 08:56:01;;;;;;;2.78;1.27;;;12.30;99.90;;;;;;5027692;28;20386;-74
2023/04/13 08:58:30;;;;;;;4.03;1.40;;;12.20;99.90;;;;;;5027880;28;20606;-75
2023/04/13 09:00:57;;;;;;;2.95;1.38;;;12.10;99.90;;;;;;5029471;28;20226;-75
2023/04/13 09:03:24;;;;;;;2.10;1.20;;;12.10;99.90;;;;;;5025962;28;20200;-74
2023/04/13 09:05:57;;;;;;;2.70;1.10;;;11.90;99.90;;;;;;5042591;28;20710;-75
2023/04/13 09:08:24;;;;;;;2.20;1.20;;;11.80;99.90;;;;;;5025569;28;20255;-75
2023/04/13 09:10:50;;;;;;;3.20;1.05;;;11.90;99.90;;;;;;5028960;28;20208;-75
2023/04/13 09:13:15;;;;;;;2.63;1.30;;;11.80;99.90;;;;;;5026750;28;20172;-75
2023/04/13 09:15:45;;;;;;;1.95;0.90;;;12.10;99.90;;;;;;5025535;28;20183;-74
2023/04/13 09:18:12;;;;;;;2.60;1.35;;;12.40;99.90;;;;;;5022780;28;20208;-76
2023/04/13 09:20:38;;;;;;;4.65;1.30;;;12.90;99.90;;;;;;5028751;28;20212;-75
2023/04/13 09:23:15;;;;;;;2.10;1.10;;;12.80;99.90;;;;;;5022511;28;20694;-76
2023/04/13 09:25:42;;;;;;;3.42;1.35;;;13.20;99.90;;;;;;5023958;28;20216;-75
2023/04/13 09:28:18;;;;;;;4.90;1.17;;;13.20;99.90;;;;;;5029535;28;20192;-76
2023/04/13 09:30:45;;;;;;;3.30;1.08;;;13.30;99.90;;;;;;5029924;28;20639;-74
2023/04/13 09:33:12;;;;;;;3.30;1.00;;;13.00;99.90;;;;;;5029044;28;20240;-73
2023/04/13 09:35:38;;;;;;;3.88;1.60;;;12.80;99.90;;;;;;5028128;28;20208;-75
2023/04/13 09:38:04;;;;;;;2.75;1.15;;;12.90;99.90;;;;;;5027475;28;20212;-76
2023/04/13 09:40:31;;;;;;;2.03;1.17;;;13.00;99.90;;;;;;5027489;28;20303;-75
2023/04/13 09:43:05;;;;;;;3.45;1.00;;;13.00;99.90;;;;;;5029421;28;20208;-74
2023/04/13 09:45:39;;;;;;;3.45;1.00;;;12.80;99.90;;;;;;5029733;28;20215;-73
2023/04/13 09:48:16;;;;;;;2.90;1.23;;;12.70;99.90;;;;;;5024678;28;20208;-75
2023/04/13 09:50:42;;;;;;;3.38;0.90;;;12.80;99.90;;;;;;5030056;28;20200;-73
2023/04/13 09:53:09;;;;;;;4.57;1.30;;;12.90;99.90;;;;;;5055290;28;20208;-74
2023/04/13 09:55:37;;;;;;;2.15;1.00;;;13.10;99.90;;;;;;5023415;28;20209;-75
2023/04/13 09:58:16;;;;;;;3.97;1.15;;;13.40;99.90;;;;;;5030761;28;20200;-75
2023/04/13 10:00:44;;;;;;;1.67;1.00;;;13.80;99.90;;;;;;5029016;28;20192;-75
2023/04/13 10:03:13;;;;;;;4.20;1.50;;;13.90;99.90;;;;;;5029586;28;20228;-75
2023/04/13 10:05:43;;;;;;;2.90;1.00;;;14.00;99.90;;;;;;5031976;28;20298;-75
2023/04/13 10:08:09;;;;;;;3.25;1.20;;;13.80;99.90;;;;;;5033089;28;20216;-75
2023/04/13 10:10:36;;;;;;;1.67;1.00;;;14.00;99.90;;;;;;5030989;28;20215;-75
2023/04/13 10:13:13;;;;;;;2.75;1.30;;;14.00;99.90;;;;;;5033670;28;20211;-75
2023/04/13 10:15:41;;;;;;;3.08;1.45;;;14.20;99.90;;;;;;5032626;28;20239;-74
2023/04/13 10:18:25;;;;;;;2.95;1.02;;;14.10;99.90;;;;;;5032083;28;20746;-75
2023/04/13 10:20:52;;;;;;;3.47;1.73;;;14.10;99.90;;;;;;5030487;28;20208;-75
2023/04/13 10:23:18;;;;;;;1.95;1.00;;;14.10;99.90;;;;;;5030621;28;20215;-75
2023/04/13 10:25:52;;;;;;;1.55;0.90;;;14.00;99.90;;;;;;5042741;28;20241;-74
2023/04/13 10:28:18;;;;;;;2.33;1.05;;;14.00;99.90;;;;;;5030789;28;20801;-74
2023/04/13 10:30:50;;;;;;;2.40;1.02;;;13.80;99.90;;;;;;5032063;28;20180;-74
2023/04/13 10:33:16;;;;;;;1.42;0.80;;;13.60;99.90;;;;;;5030141;28;20208;-74
2023/04/13 10:35:52;;;;;;;1.88;0.93;;;13.40;99.90;;;;;;5029545;28;20271;-72
2023/04/13 10:38:18;;;;;;;2.65;1.10;;;13.40;99.90;;;;;;5028433;28;20280;-75
2023/04/13 10:40:45;;;;;;;4.20;1.45;;;13.50;99.90;;;;;;5031648;28;20212;-72
2023/04/13 10:43:11;;;;;;;5.10;1.35;;;13.60;99.90;;;;;;5024829;28;20172;-74
2023/04/13 10:45:37;;;;;;;4.38;0.82;;;13.40;99.90;;;;;;5022449;28;20209;-74
2023/04/13 10:48:04;;;;;;;1.75;0.75;;;13.30;99.90;;;;;;5028541;28;20216;-74
2023/04/13 10:50:30;;;;;;;2.92;0.93;;;13.60;99.90;;;;;;5032442;28;20721;-74
2023/04/13 10:53:06;;;;;;;2.65;1.10;;;13.40;99.90;;;;;;5031138;28;20208;-74
2023/04/13 10:55:33;;;;;;;5.88;1.23;;;13.70;99.90;;;;;;5030879;28;20589;-74
2023/04/13 10:58:00;;;;;;;2.47;0.80;;;13.60;99.90;;;;;;5027837;28;20219;-74
2023/04/13 11:00:29;;;;;;;1.98;0.80;;;13.60;99.90;;;;;;5029566;28;20208;-74
2023/04/13 11:02:56;;;;;;;3.42;0.90;;;13.70;99.90;;;;;;5031221;28;20215;-75
2023/04/13 11:05:23;;;;;;;4.35;1.50;;;13.70;99.90;;;;;;5028969;28;20746;-75
2023/04/13 11:07:50;;;;;;;4.43;1.00;;;13.70;99.90;;;;;;5027906;28;20255;-74
2023/04/13 11:10:27;;;;;;;3.88;1.25;;;13.50;99.90;;;;;;5027816;28;20543;-73
2023/04/13 11:12:55;;;;;;;3.83;1.05;;;13.50;99.90;;;;;;5031724;28;20183;-73
2023/04/13 11:15:23;;;;;;;2.40;1.05;;;13.50;99.90;;;;;;5028856;28;20204;-74
2023/04/13 11:17:59;;;;;;;6.45;1.00;;;13.50;99.90;;;;;;5039971;28;20240;-75
2023/04/13 11:20:34;;;;;;;3.45;1.00;;;13.40;99.90;;;;;;5026874;28;20205;-75
2023/04/13 11:23:02;;;;;;;2.58;0.80;;;13.40;99.90;;;;;;5024527;28;20395;-74
2023/04/13 11:25:29;;;;;;;4.13;0.90;;;13.40;99.90;;;;;;5031217;28;20223;-73
2023/04/13 11:28:02;;;;;;;3.83;0.90;;;13.40;99.90;;;;;;5024282;28;20200;-76
2023/04/13 11:30:28;;;;;;;2.95;0.90;;;13.50;99.90;;;;;;5032384;28;20597;-75
2023/04/13 11:32:57;;;;;;;1.63;1.00;;;13.60;99.90;;;;;;5031252;28;20212;-74
2023/04/13 11:35:22;;;;;;;1.65;0.68;;;13.60;99.90;;;;;;5030740;28;20243;-74
2023/04/13 11:37:51;;;;;;;1.70;0.98;;;13.80;99.90;;;;;;5029622;28;20224;-75
2023/04/13 11:40:26;;;;;;;4.43;0.85;;;13.70;99.90;;;;;;5031051;28;20176;-75
2023/04/13 11:42:54;;;;;;;3.78;1.13;;;13.70;99.90;;;;;;5028963;28;20223;-75
2023/04/13 11:45:22;;;;;;;3.63;0.82;;;13.70;99.90;;;;;;5043798;28;20223;-75
2023/04/13 11:47:52;;;;;;;2.13;0.80;;;13.90;99.90;;;;;;5026226;28;20300;-75
2023/04/13 11:50:19;;;;;;;3.08;1.00;;;13.90;99.90;;;;;;5032486;28;20393;-74
2023/04/13 11:52:46;;;;;;;4.50;0.85;;;13.90;99.90;;;;;;5025009;28;20754;-75
2023/04/13 11:55:13;;;;;;;10.23;1.15;;;14.10;99.90;;;;;;5025314;28;20185;-74
2023/04/13 11:57:43;;;;;;;4.28;1.00;;;14.40;99.90;;;;;;5023163;28;20269;-74
2023/04/13 12:00:17;;;;;;;3.85;1.23;;;14.40;99.90;;;;;;5028530;28;20204;-74
2023/04/13 12:02:43;;;;;;;2.42;0.73;;;14.20;99.90;;;;;;5026017;28;20211;-75
2023/04/13 12:05:23;;;;;;;3.17;1.00;;;14.00;99.90;;;;;;5024376;28;20216;-74
2023/04/13 12:07:50;;;;;;;3.03;0.80;;;14.00;99.90;;;;;;5023213;28;20733;-73
2023/04/13 12:10:26;;;;;;;3.30;0.93;;;14.10;99.90;;;;;;5026125;28;20183;-75
2023/04/13 12:12:59;;;;;;;1.63;0.88;;;14.10;99.90;;;;;;5030707;28;20177;-76
2023/04/13 12:15:26;;;;;;;4.13;1.00;;;14.10;99.90;;;;;;5030931;28;20808;-76
2023/04/13 12:17:54;;;;;;;6.60;1.52;;;13.80;99.90;;;;;;5028515;28;20217;-76
2023/04/13 12:20:19;;;;;;;3.80;0.80;;;13.80;99.90;;;;;;5029987;28;20279;-75
2023/04/13 12:22:45;;;;;;;4.05;1.20;;;13.80;99.90;;;;;;5028509;28;20737;-75
2023/04/13 12:25:20;;;;;;;4.53;1.10;;;13.80;99.90;;;;;;5028047;28;20200;-76
2023/04/13 12:27:49;;;;;;;1.50;0.80;;;13.70;99.90;;;;;;5026751;28;20238;-73
2023/04/13 12:30:16;;;;;;;3.38;0.70;;;13.70;99.90;;;;;;5029100;28;20709;-75
2023/04/13 12:32:43;;;;;;;2.67;0.88;;;13.80;99.90;;;;;;5024136;28;20713;-73
2023/04/13 12:35:09;;;;;;;2.00;0.90;;;13.90;99.90;;;;;;5029672;28;20258;-74
2023/04/13 12:37:41;;;;;;;3.15;0.90;;;13.90;99.90;;;;;;5024669;28;20217;-73
2023/04/13 12:40:11;;;;;;;3.47;0.90;;;13.90;99.90;;;;;;5022519;28;20768;-74
2023/04/13 12:42:41;;;;;;;3.80;1.00;;;13.90;99.90;;;;;;5027858;28;20259;-73
2023/04/13 12:45:08;;;;;;;1.98;1.00;;;14.00;99.90;;;;;;5023593;28;20215;-74
2023/04/13 12:47:34;;;;;;;3.97;1.38;;;14.30;99.90;;;;;;5019567;28;20350;-74
2023/04/13 12:50:03;;;;;;;1.80;0.90;;;14.40;99.90;;;;;;5025522;28;20283;-73
2023/04/13 12:52:31;;;;;;;2.80;1.00;;;14.50;99.90;;;;;;5025623;28;20228;-73